Ever Delight — 3FCB8 — position and weather

sailwx.info

Track history (hours):
 
Tides and Currents Weather Stations Pressure Air Temp Water Temp Dewpoint Dewpoint Depression Visibility Wind Speed Wind Dir Waves Ship Positions

Ever Delight

Last reported at 2014-Jul-23 14:28 UTC. Time now 2014-Jul-23 15:33 UTC.
Position N 37°40' W 074°54'.

Type: Cargo ship. MMSI: 351936000.

Date/timePositionNaut miles runAvg speedWind from/ knotsBaromVisibWave heightAir tempDewpointWater temp
2014-Jul-23 14:28N 37°40' W 074°54'4020.7
2014-Jul-23 12:33N 37°08' W 075°23'2120.0
2014-Jul-23 11:29N 36°51' W 075°39'1415.1
2014-Jul-23 10:33N 36°54' W 075°56'1313.4
2014-Jul-23 09:33N 36°60' W 076°11'10 7.6
2014-Jul-23 08:17N 36°53' W 076°20'1 0.6
2014-Jul-23 07:07N 36°53' W 076°21'0 0.0
2014-Jul-23 06:33N 36°53' W 076°21'0 0.0
2014-Jul-23 05:32N 36°53' W 076°21'0 0.0
2014-Jul-23 04:33N 36°53' W 076°21'0 0.0
2014-Jul-23 03:32N 36°53' W 076°21'0 0.0
2014-Jul-23 02:33N 36°53' W 076°21'0 0.0
2014-Jul-23 01:33N 36°53' W 076°21'0 0.0
2014-Jul-23 00:33N 36°53' W 076°21'0 0.0
2014-Jul-22 23:30N 36°53' W 076°21'0 0.0
2014-Jul-22 22:30N 36°53' W 076°21'0 0.0
2014-Jul-22 21:17N 36°53' W 076°21'3 3.7
2014-Jul-22 20:31N 36°55' W 076°20'9 9.3
2014-Jul-22 19:32N 36°59' W 076°10'6 6.0
2014-Jul-22 18:33N 37°01' W 076°03'1413.8
2014-Jul-22 17:30N 37°15' W 076°08'4314.4
2014-Jul-22 14:29N 37°59' W 076°11'1515.5
2014-Jul-22 13:29N 38°14' W 076°15'1918.0
2014-Jul-22 12:24N 38°32' W 076°25'1618.3
2014-Jul-22 11:33N 38°47' W 076°25'1616.1
2014-Jul-22 10:33N 39°03' W 076°23'1212.4
2014-Jul-22 09:34N 39°14' W 076°32'2 1.9
2014-Jul-22 08:33N 39°15' W 076°33'0 0.0
2014-Jul-22 07:31N 39°15' W 076°33'0 0.0
2014-Jul-22 06:31N 39°15' W 076°33'0 0.0
2014-Jul-22 05:31N 39°15' W 076°33'0 0.0
2014-Jul-22 04:31N 39°15' W 076°33'0 0.0
2014-Jul-22 03:31N 39°15' W 076°33'0 0.0
2014-Jul-22 02:31N 39°15' W 076°33'0 0.0
2014-Jul-22 01:31N 39°15' W 076°33'0 0.0
2014-Jul-22 00:31N 39°15' W 076°33'0 0.0
2014-Jul-21 23:31N 39°15' W 076°33'0 0.0
2014-Jul-21 22:31N 39°15' W 076°33'0 0.0
2014-Jul-21 21:31N 39°15' W 076°33'0 0.0
2014-Jul-21 20:31N 39°15' W 076°33'0 0.0
2014-Jul-21 20:16N 39°15' W 076°33'0 0.0
2014-Jul-21 19:31N 39°15' W 076°33'0 0.0
2014-Jul-21 18:33N 39°15' W 076°33'0 0.0
2014-Jul-21 17:33N 39°15' W 076°33'0 0.0
2014-Jul-21 16:33N 39°15' W 076°33'0 0.0
2014-Jul-21 15:33N 39°15' W 076°33'0 0.0
2014-Jul-21 14:33N 39°15' W 076°33'0 0.0
2014-Jul-21 13:33N 39°15' W 076°33'0 0.0
2014-Jul-21 12:33N 39°15' W 076°33'0 0.0
2014-Jul-21 11:33N 39°15' W 076°33'0 0.0
2014-Jul-21 10:33N 39°15' W 076°33'0 0.0
2014-Jul-21 09:33N 39°15' W 076°33'0 0.0
2014-Jul-21 08:33N 39°15' W 076°33'0 0.0
2014-Jul-21 07:33N 39°15' W 076°33'0 0.0
2014-Jul-21 06:33N 39°15' W 076°33'0 0.0
2014-Jul-21 05:33N 39°15' W 076°33'0 0.0
2014-Jul-21 04:33N 39°15' W 076°33'0 0.0
2014-Jul-21 03:33N 39°15' W 076°33'0 0.0
2014-Jul-21 02:33N 39°15' W 076°33'0 0.0
2014-Jul-21 01:33N 39°15' W 076°33'0 0.0
2014-Jul-21 00:33N 39°15' W 076°33'0 0.0
2014-Jul-20 23:33N 39°15' W 076°33'0 0.2
2014-Jul-20 22:33N 39°15' W 076°33'7 7.0
2014-Jul-20 21:33N 39°11' W 076°26'1312.7
2014-Jul-20 20:33N 38°58' W 076°23'10617.6
2014-Jul-20 14:32N 37°13' W 076°09'1313.1
2014-Jul-20 13:31N 37°01' W 076°02'1211.0
2014-Jul-20 12:28N 36°53' W 075°52'  
Track history (hours):
 
Tides and Currents Weather Stations Pressure Air Temp Water Temp Dewpoint Dewpoint Depression Visibility Wind Speed Wind Dir Waves Ship Positions

Ever Delight

Last reported at 2014-Jul-23 14:28 UTC. Time now 2014-Jul-23 15:33 UTC.
Position N 37°40' W 074°54'.

Type: Cargo ship. MMSI: 351936000.

Date/timePositionNaut miles runAvg speedWind from/ knotsBaromVisibWave heightAir tempDewpointWater temp
2014-Jul-23 14:28N 37°40' W 074°54'4020.7
2014-Jul-23 12:33N 37°08' W 075°23'2120.0
2014-Jul-23 11:29N 36°51' W 075°39'1415.1
2014-Jul-23 10:33N 36°54' W 075°56'1313.4
2014-Jul-23 09:33N 36°60' W 076°11'10 7.6
2014-Jul-23 08:17N 36°53' W 076°20'1 0.6
2014-Jul-23 07:07N 36°53' W 076°21'0 0.0
2014-Jul-23 06:33N 36°53' W 076°21'0 0.0
2014-Jul-23 05:32N 36°53' W 076°21'0 0.0
2014-Jul-23 04:33N 36°53' W 076°21'0 0.0
2014-Jul-23 03:32N 36°53' W 076°21'0 0.0
2014-Jul-23 02:33N 36°53' W 076°21'0 0.0
2014-Jul-23 01:33N 36°53' W 076°21'0 0.0
2014-Jul-23 00:33N 36°53' W 076°21'0 0.0
2014-Jul-22 23:30N 36°53' W 076°21'0 0.0
2014-Jul-22 22:30N 36°53' W 076°21'0 0.0
2014-Jul-22 21:17N 36°53' W 076°21'3 3.7
2014-Jul-22 20:31N 36°55' W 076°20'9 9.3
2014-Jul-22 19:32N 36°59' W 076°10'6 6.0
2014-Jul-22 18:33N 37°01' W 076°03'1413.8
2014-Jul-22 17:30N 37°15' W 076°08'4314.4
2014-Jul-22 14:29N 37°59' W 076°11'1515.5
2014-Jul-22 13:29N 38°14' W 076°15'1918.0
2014-Jul-22 12:24N 38°32' W 076°25'1618.3
2014-Jul-22 11:33N 38°47' W 076°25'1616.1
2014-Jul-22 10:33N 39°03' W 076°23'1212.4
2014-Jul-22 09:34N 39°14' W 076°32'2 1.9
2014-Jul-22 08:33N 39°15' W 076°33'0 0.0
2014-Jul-22 07:31N 39°15' W 076°33'0 0.0
2014-Jul-22 06:31N 39°15' W 076°33'0 0.0
2014-Jul-22 05:31N 39°15' W 076°33'0 0.0
2014-Jul-22 04:31N 39°15' W 076°33'0 0.0
2014-Jul-22 03:31N 39°15' W 076°33'0 0.0
2014-Jul-22 02:31N 39°15' W 076°33'0 0.0
2014-Jul-22 01:31N 39°15' W 076°33'0 0.0
2014-Jul-22 00:31N 39°15' W 076°33'0 0.0
2014-Jul-21 23:31N 39°15' W 076°33'0 0.0
2014-Jul-21 22:31N 39°15' W 076°33'0 0.0
2014-Jul-21 21:31N 39°15' W 076°33'0 0.0
2014-Jul-21 20:31N 39°15' W 076°33'0 0.0
2014-Jul-21 20:16N 39°15' W 076°33'0 0.0
2014-Jul-21 19:31N 39°15' W 076°33'0 0.0
2014-Jul-21 18:33N 39°15' W 076°33'0 0.0
2014-Jul-21 17:33N 39°15' W 076°33'0 0.0
2014-Jul-21 16:33N 39°15' W 076°33'0 0.0
2014-Jul-21 15:33N 39°15' W 076°33'0 0.0
2014-Jul-21 14:33N 39°15' W 076°33'0 0.0
2014-Jul-21 13:33N 39°15' W 076°33'0 0.0
2014-Jul-21 12:33N 39°15' W 076°33'0 0.0
2014-Jul-21 11:33N 39°15' W 076°33'0 0.0
2014-Jul-21 10:33N 39°15' W 076°33'0 0.0
2014-Jul-21 09:33N 39°15' W 076°33'0 0.0
2014-Jul-21 08:33N 39°15' W 076°33'0 0.0
2014-Jul-21 07:33N 39°15' W 076°33'0 0.0
2014-Jul-21 06:33N 39°15' W 076°33'0 0.0
2014-Jul-21 05:33N 39°15' W 076°33'0 0.0
2014-Jul-21 04:33N 39°15' W 076°33'0 0.0
2014-Jul-21 03:33N 39°15' W 076°33'0 0.0
2014-Jul-21 02:33N 39°15' W 076°33'0 0.0
2014-Jul-21 01:33N 39°15' W 076°33'0 0.0
2014-Jul-21 00:33N 39°15' W 076°33'0 0.0
2014-Jul-20 23:33N 39°15' W 076°33'0 0.2
2014-Jul-20 22:33N 39°15' W 076°33'7 7.0
2014-Jul-20 21:33N 39°11' W 076°26'1312.7
2014-Jul-20 20:33N 38°58' W 076°23'10617.6
2014-Jul-20 14:32N 37°13' W 076°09'1313.1
2014-Jul-20 13:31N 37°01' W 076°02'1211.0
2014-Jul-20 12:28N 36°53' W 075°52'  

Dump ship's entire track history